HAZ6318 ZMCK-ZSHC
Flight info
| Callsign | HAZ6318 |
|---|---|
| Flight time | 2h 46m |
| Altitude | 39100 |
| Route | ISMIN2D ISMIN Y655 NOLAD V674 NIXAL B208 HFE R343 UPLEL W95 SAPIN A470 IGRAT IGRAT91 |
| Aircraft | A339/H-SADE1E2E3GHIJ3J5M1P2RWXY/LB2D1 |
Departure
| Time | 2026-04-25 13:16 |
|---|---|
| Airport | Ulaanbaatar Chinggis Khaan International Airport (ZMCK) |
Arrival
| Time | 2026-04-25 16:02 |
|---|---|
| Airport | Hangzhou Xiaoshan International Airport (ZSHC) |
| Time | Latitude | Longitude | Altitude | Speed | Heading |
|---|---|---|---|---|---|
| 2026-04-25 13:02 | 47.65029 | 106.82212 | 4518 ft | 0 kts | 356° |
| 2026-04-25 13:07 | 47.65027 | 106.82213 | 4517 ft | 1 kts | 356° |
| 2026-04-25 13:07 | 47.65012 | 106.82214 | 4517 ft | 2 kts | 356° |
| 2026-04-25 13:08 | 47.64997 | 106.82215 | 4516 ft | 2 kts | 356° |
| 2026-04-25 13:08 | 47.64983 | 106.82217 | 4515 ft | 2 kts | 356° |
| 2026-04-25 13:08 | 47.64967 | 106.82218 | 4514 ft | 2 kts | 356° |
| 2026-04-25 13:08 | 47.64952 | 106.82220 | 4513 ft | 2 kts | 7° |
| 2026-04-25 13:09 | 47.64938 | 106.82212 | 4512 ft | 2 kts | 38° |
| 2026-04-25 13:09 | 47.64928 | 106.82195 | 4511 ft | 2 kts | 63° |
| 2026-04-25 13:09 | 47.64923 | 106.82175 | 4511 ft | 2 kts | 89° |
| 2026-04-25 13:09 | 47.64923 | 106.82160 | 4510 ft | 0 kts | 105° |
| 2026-04-25 13:10 | 47.64925 | 106.82152 | 4510 ft | 0 kts | 105° |
| 2026-04-25 13:11 | 47.64925 | 106.82153 | 4510 ft | 0 kts | 105° |
| 2026-04-25 13:11 | 47.64920 | 106.82182 | 4510 ft | 5 kts | 104° |
| 2026-04-25 13:11 | 47.64906 | 106.82262 | 4511 ft | 10 kts | 104° |
| 2026-04-25 13:12 | 47.64884 | 106.82390 | 4511 ft | 16 kts | 104° |
| 2026-04-25 13:12 | 47.64836 | 106.82559 | 4510 ft | 18 kts | 134° |
| 2026-04-25 13:12 | 47.64760 | 106.82631 | 4505 ft | 7 kts | 125° |
| 2026-04-25 13:12 | 47.64741 | 106.82702 | 4504 ft | 14 kts | 108° |
| 2026-04-25 13:13 | 47.64693 | 106.82963 | 4500 ft | 21 kts | 105° |
| 2026-04-25 13:13 | 47.64656 | 106.83172 | 4501 ft | 21 kts | 105° |
| 2026-04-25 13:13 | 47.64615 | 106.83401 | 4501 ft | 24 kts | 104° |
| 2026-04-25 13:13 | 47.64571 | 106.83655 | 4502 ft | 25 kts | 104° |
| 2026-04-25 13:14 | 47.64527 | 106.83906 | 4500 ft | 24 kts | 104° |
| 2026-04-25 13:14 | 47.64485 | 106.84145 | 4501 ft | 22 kts | 105° |
| 2026-04-25 13:14 | 47.64409 | 106.84315 | 4503 ft | 19 kts | 164° |
| 2026-04-25 13:14 | 47.64292 | 106.84260 | 4499 ft | 19 kts | 247° |
| 2026-04-25 13:15 | 47.64302 | 106.84185 | 4498 ft | 3 kts | 293° |
| 2026-04-25 13:15 | 47.64357 | 106.83875 | 4494 ft | 63 kts | 285° |
| 2026-04-25 13:15 | 47.64519 | 106.82959 | 4493 ft | 120 kts | 285° |
| 2026-04-25 13:15 | 47.64771 | 106.81522 | 4493 ft | 166 kts | 285° |
| 2026-04-25 13:16 | 47.65068 | 106.79758 | 4797 ft | 181 kts | 285° |
| 2026-04-25 13:16 | 47.65378 | 106.77920 | 5295 ft | 186 kts | 287° |
| 2026-04-25 13:16 | 47.65705 | 106.76097 | 5935 ft | 185 kts | 287° |
| 2026-04-25 13:16 | 47.66036 | 106.74287 | 6530 ft | 182 kts | 287° |
| 2026-04-25 13:17 | 47.66362 | 106.72491 | 7008 ft | 182 kts | 285° |
| 2026-04-25 13:17 | 47.66288 | 106.70622 | 7479 ft | 188 kts | 245° |
| 2026-04-25 13:17 | 47.65353 | 106.69252 | 7835 ft | 204 kts | 204° |
| 2026-04-25 13:17 | 47.63907 | 106.68792 | 8102 ft | 221 kts | 191° |
| 2026-04-25 13:18 | 47.62334 | 106.68470 | 8384 ft | 237 kts | 191° |
| 2026-04-25 13:18 | 47.60646 | 106.68131 | 8690 ft | 253 kts | 192° |
| 2026-04-25 13:18 | 47.58852 | 106.67750 | 9001 ft | 270 kts | 192° |
| 2026-04-25 13:18 | 47.56937 | 106.67329 | 9319 ft | 288 kts | 193° |
| 2026-04-25 13:19 | 47.54892 | 106.66878 | 9744 ft | 301 kts | 193° |
| 2026-04-25 13:19 | 47.52819 | 106.66417 | 10374 ft | 307 kts | 193° |
| 2026-04-25 13:19 | 47.50653 | 106.65932 | 10798 ft | 321 kts | 193° |
| 2026-04-25 13:19 | 47.49156 | 106.65594 | 11018 ft | 333 kts | 193° |
| 2026-04-25 13:20 | 47.46027 | 106.64888 | 11430 ft | 356 kts | 193° |
| 2026-04-25 13:20 | 47.43505 | 106.64324 | 11861 ft | 369 kts | 193° |
| 2026-04-25 13:20 | 47.40956 | 106.63760 | 12516 ft | 375 kts | 193° |
| 2026-04-25 13:20 | 47.38403 | 106.63196 | 13198 ft | 379 kts | 194° |
| 2026-04-25 13:21 | 47.35778 | 106.62669 | 13847 ft | 386 kts | 189° |
| 2026-04-25 13:21 | 47.33044 | 106.62732 | 14493 ft | 397 kts | 177° |
| 2026-04-25 13:21 | 47.30336 | 106.63509 | 15173 ft | 404 kts | 168° |
| 2026-04-25 13:21 | 47.27613 | 106.64600 | 15862 ft | 408 kts | 167° |
| 2026-04-25 13:22 | 47.24876 | 106.65753 | 16534 ft | 412 kts | 167° |
| 2026-04-25 13:22 | 47.22124 | 106.66904 | 17205 ft | 415 kts | 167° |
| 2026-04-25 13:22 | 47.19349 | 106.68047 | 17859 ft | 419 kts | 167° |
| 2026-04-25 13:23 | 47.13672 | 106.70353 | 19149 ft | 427 kts | 168° |
| 2026-04-25 13:23 | 47.10821 | 106.71500 | 19763 ft | 431 kts | 168° |
| 2026-04-25 13:23 | 47.07917 | 106.72663 | 20375 ft | 436 kts | 168° |
| 2026-04-25 13:23 | 47.04975 | 106.73842 | 20992 ft | 439 kts | 168° |
| 2026-04-25 13:24 | 47.02020 | 106.75024 | 21566 ft | 444 kts | 168° |
| 2026-04-25 13:24 | 46.99067 | 106.76205 | 22148 ft | 447 kts | 168° |
| 2026-04-25 13:24 | 46.96065 | 106.77405 | 22703 ft | 451 kts | 169° |
| 2026-04-25 13:24 | 46.93021 | 106.78616 | 23217 ft | 455 kts | 168° |
| 2026-04-25 13:25 | 46.89963 | 106.79833 | 23749 ft | 459 kts | 169° |
| 2026-04-25 13:25 | 46.86867 | 106.81086 | 24248 ft | 463 kts | 166° |
| 2026-04-25 13:25 | 46.83919 | 106.83021 | 24678 ft | 473 kts | 150° |
| 2026-04-25 13:25 | 46.81343 | 106.86031 | 25160 ft | 479 kts | 134° |
| 2026-04-25 13:26 | 46.79216 | 106.89705 | 25640 ft | 481 kts | 128° |
| 2026-04-25 13:26 | 46.77136 | 106.93558 | 26031 ft | 485 kts | 128° |
| 2026-04-25 13:26 | 46.75041 | 106.97460 | 26404 ft | 490 kts | 128° |
| 2026-04-25 13:26 | 46.72944 | 107.01327 | 26792 ft | 493 kts | 128° |
| 2026-04-25 13:27 | 46.70807 | 107.05225 | 27176 ft | 497 kts | 129° |
| 2026-04-25 13:27 | 46.68632 | 107.09159 | 27531 ft | 500 kts | 129° |
| 2026-04-25 13:27 | 46.66441 | 107.13103 | 27902 ft | 504 kts | 129° |
| 2026-04-25 13:27 | 46.64232 | 107.17061 | 28267 ft | 507 kts | 129° |
| 2026-04-25 13:28 | 46.62013 | 107.21024 | 28608 ft | 510 kts | 129° |
| 2026-04-25 13:28 | 46.60529 | 107.23674 | 28826 ft | 513 kts | 129° |
| 2026-04-25 13:28 | 46.57526 | 107.29027 | 29290 ft | 517 kts | 129° |
| 2026-04-25 13:28 | 46.55239 | 107.33090 | 29609 ft | 520 kts | 129° |
| 2026-04-25 13:29 | 46.52962 | 107.37131 | 29909 ft | 523 kts | 129° |
| 2026-04-25 13:29 | 46.50650 | 107.41235 | 30213 ft | 527 kts | 130° |
| 2026-04-25 13:29 | 46.48329 | 107.45344 | 30517 ft | 530 kts | 129° |
| 2026-04-25 13:30 | 46.43632 | 107.53644 | 31124 ft | 535 kts | 129° |
| 2026-04-25 13:30 | 46.41273 | 107.57805 | 31537 ft | 534 kts | 130° |
| 2026-04-25 13:30 | 46.38927 | 107.61937 | 31978 ft | 533 kts | 130° |
| 2026-04-25 13:31 | 46.34256 | 107.70145 | 32727 ft | 533 kts | 131° |
| 2026-04-25 13:31 | 46.31896 | 107.74284 | 33076 ft | 533 kts | 131° |
| 2026-04-25 13:31 | 46.29554 | 107.78382 | 33426 ft | 533 kts | 131° |
| 2026-04-25 13:31 | 46.27185 | 107.82518 | 33784 ft | 533 kts | 131° |
| 2026-04-25 13:32 | 46.24822 | 107.86641 | 34097 ft | 533 kts | 131° |
| 2026-04-25 13:32 | 46.22485 | 107.90712 | 34418 ft | 533 kts | 131° |
| 2026-04-25 13:32 | 46.20120 | 107.94826 | 34731 ft | 533 kts | 131° |
| 2026-04-25 13:32 | 46.17753 | 107.98937 | 35071 ft | 531 kts | 131° |
| 2026-04-25 13:33 | 46.15427 | 108.02969 | 35399 ft | 530 kts | 131° |
| 2026-04-25 13:33 | 46.13056 | 108.07072 | 35688 ft | 529 kts | 131° |
| 2026-04-25 13:33 | 46.10720 | 108.11111 | 35968 ft | 529 kts | 131° |
| 2026-04-25 13:33 | 46.09141 | 108.13836 | 36130 ft | 529 kts | 131° |
| 2026-04-25 13:34 | 46.06023 | 108.19216 | 36450 ft | 529 kts | 131° |
| 2026-04-25 13:34 | 46.03664 | 108.23279 | 36723 ft | 528 kts | 130° |
| 2026-04-25 13:34 | 46.01315 | 108.27321 | 37022 ft | 528 kts | 131° |
| 2026-04-25 13:34 | 45.98989 | 108.31321 | 37328 ft | 527 kts | 131° |
| 2026-04-25 13:35 | 45.96627 | 108.35369 | 37576 ft | 527 kts | 131° |
| 2026-04-25 13:35 | 45.94301 | 108.39352 | 37790 ft | 528 kts | 131° |
| 2026-04-25 13:35 | 45.91924 | 108.43417 | 37983 ft | 529 kts | 130° |
| 2026-04-25 13:35 | 45.89578 | 108.47425 | 38191 ft | 530 kts | 130° |
| 2026-04-25 13:36 | 45.87221 | 108.51446 | 38394 ft | 531 kts | 130° |
| 2026-04-25 13:36 | 45.84836 | 108.55518 | 38567 ft | 531 kts | 130° |
| 2026-04-25 13:36 | 45.82448 | 108.59577 | 38760 ft | 532 kts | 130° |
| 2026-04-25 13:36 | 45.80069 | 108.63596 | 38940 ft | 532 kts | 131° |
| 2026-04-25 13:37 | 45.77588 | 108.67443 | 39116 ft | 532 kts | 136° |
| 2026-04-25 13:37 | 45.72096 | 108.74477 | 39155 ft | 531 kts | 145° |
| 2026-04-25 13:38 | 45.66022 | 108.80440 | 39151 ft | 527 kts | 152° |
| 2026-04-25 13:38 | 45.59821 | 108.85894 | 39165 ft | 527 kts | 152° |
| 2026-04-25 13:39 | 45.53598 | 108.91385 | 39157 ft | 527 kts | 151° |
| 2026-04-25 13:39 | 45.47350 | 108.96915 | 39176 ft | 528 kts | 151° |
| 2026-04-25 13:40 | 45.42166 | 109.01502 | 39182 ft | 528 kts | 151° |
| 2026-04-25 13:40 | 45.34907 | 109.07909 | 39183 ft | 529 kts | 151° |
| 2026-04-25 13:41 | 45.28684 | 109.13387 | 39171 ft | 528 kts | 151° |
| 2026-04-25 13:41 | 45.22481 | 109.18835 | 39185 ft | 527 kts | 151° |
| 2026-04-25 13:42 | 45.16231 | 109.24303 | 39188 ft | 527 kts | 151° |
| 2026-04-25 13:42 | 45.10033 | 109.29720 | 39201 ft | 526 kts | 151° |
| 2026-04-25 13:43 | 45.03831 | 109.35120 | 39170 ft | 526 kts | 151° |
| 2026-04-25 13:43 | 44.97614 | 109.40521 | 39186 ft | 526 kts | 151° |
| 2026-04-25 13:44 | 44.91369 | 109.45934 | 39175 ft | 527 kts | 151° |
| 2026-04-25 13:44 | 44.85147 | 109.51313 | 39183 ft | 527 kts | 151° |
| 2026-04-25 13:45 | 44.78932 | 109.56670 | 39173 ft | 526 kts | 151° |
| 2026-04-25 13:45 | 44.72687 | 109.62042 | 39172 ft | 527 kts | 151° |
| 2026-04-25 13:46 | 44.66461 | 109.67384 | 39161 ft | 527 kts | 152° |
| 2026-04-25 13:46 | 44.60191 | 109.72751 | 39159 ft | 527 kts | 152° |
| 2026-04-25 13:47 | 44.53981 | 109.78052 | 39160 ft | 527 kts | 153° |
| 2026-04-25 13:47 | 44.47728 | 109.83382 | 39160 ft | 527 kts | 153° |
| 2026-04-25 13:48 | 44.41479 | 109.88689 | 39151 ft | 527 kts | 152° |
| 2026-04-25 13:48 | 44.35213 | 109.93984 | 39148 ft | 528 kts | 153° |
| 2026-04-25 13:49 | 44.28933 | 109.99279 | 39159 ft | 528 kts | 152° |
| 2026-04-25 13:49 | 44.22654 | 110.04566 | 39154 ft | 528 kts | 152° |
| 2026-04-25 13:50 | 44.16365 | 110.09849 | 39154 ft | 529 kts | 152° |
| 2026-04-25 13:50 | 44.10094 | 110.15107 | 39152 ft | 530 kts | 152° |
| 2026-04-25 13:51 | 44.03795 | 110.20380 | 39138 ft | 529 kts | 152° |
| 2026-04-25 13:51 | 43.97493 | 110.25634 | 39147 ft | 530 kts | 153° |
| 2026-04-25 13:52 | 43.91177 | 110.30889 | 39145 ft | 531 kts | 152° |
| 2026-04-25 13:52 | 43.84892 | 110.36104 | 39145 ft | 530 kts | 153° |
| 2026-04-25 13:53 | 43.78566 | 110.41341 | 39145 ft | 530 kts | 153° |
| 2026-04-25 13:53 | 43.72271 | 110.46542 | 39144 ft | 531 kts | 153° |
| 2026-04-25 13:54 | 43.65919 | 110.51773 | 39144 ft | 532 kts | 153° |
| 2026-04-25 13:54 | 43.59598 | 110.56972 | 39138 ft | 532 kts | 152° |
| 2026-04-25 13:55 | 43.53205 | 110.62208 | 39141 ft | 533 kts | 152° |
| 2026-04-25 13:55 | 43.46873 | 110.67392 | 39136 ft | 532 kts | 153° |
| 2026-04-25 13:56 | 43.40523 | 110.72575 | 39138 ft | 532 kts | 153° |
| 2026-04-25 13:56 | 43.34172 | 110.77750 | 39134 ft | 533 kts | 153° |
| 2026-04-25 13:57 | 43.27827 | 110.82902 | 39132 ft | 533 kts | 153° |
| 2026-04-25 13:57 | 43.21282 | 110.87670 | 39136 ft | 529 kts | 160° |
| 2026-04-25 13:58 | 43.14462 | 110.91216 | 39142 ft | 523 kts | 168° |
| 2026-04-25 13:58 | 43.07557 | 110.94090 | 39143 ft | 523 kts | 169° |
| 2026-04-25 13:59 | 43.00577 | 110.97001 | 39144 ft | 523 kts | 168° |
| 2026-04-25 13:59 | 42.93639 | 110.99909 | 39144 ft | 525 kts | 168° |
| 2026-04-25 14:00 | 42.86714 | 111.02825 | 39147 ft | 522 kts | 168° |
| 2026-04-25 14:00 | 42.79761 | 111.05743 | 39152 ft | 522 kts | 168° |
| 2026-04-25 14:01 | 42.72833 | 111.08642 | 39156 ft | 521 kts | 168° |
| 2026-04-25 14:01 | 42.65919 | 111.11524 | 39145 ft | 522 kts | 168° |
| 2026-04-25 14:02 | 42.59010 | 111.14404 | 39155 ft | 522 kts | 168° |
| 2026-04-25 14:02 | 42.52085 | 111.17283 | 39152 ft | 521 kts | 168° |
| 2026-04-25 14:03 | 42.45169 | 111.20150 | 39150 ft | 520 kts | 168° |
| 2026-04-25 14:03 | 42.38245 | 111.23016 | 39142 ft | 520 kts | 169° |
| 2026-04-25 14:04 | 42.31372 | 111.25854 | 39148 ft | 519 kts | 169° |
| 2026-04-25 14:04 | 42.24442 | 111.28710 | 39165 ft | 520 kts | 168° |
| 2026-04-25 14:05 | 42.17539 | 111.31548 | 39148 ft | 519 kts | 169° |
| 2026-04-25 14:05 | 42.10668 | 111.34368 | 39158 ft | 520 kts | 169° |
| 2026-04-25 14:06 | 42.03771 | 111.37199 | 39152 ft | 518 kts | 169° |
| 2026-04-25 14:06 | 41.96915 | 111.40009 | 39156 ft | 518 kts | 168° |
| 2026-04-25 14:07 | 41.90009 | 111.42831 | 39150 ft | 518 kts | 168° |
| 2026-04-25 14:07 | 41.83119 | 111.45646 | 39153 ft | 518 kts | 168° |
| 2026-04-25 14:08 | 41.76226 | 111.48453 | 39159 ft | 519 kts | 168° |
| 2026-04-25 14:08 | 41.69334 | 111.51253 | 39158 ft | 518 kts | 168° |
| 2026-04-25 14:09 | 41.62472 | 111.54036 | 39159 ft | 519 kts | 168° |
| 2026-04-25 14:09 | 41.55572 | 111.56830 | 39160 ft | 519 kts | 169° |
| 2026-04-25 14:10 | 41.48637 | 111.59626 | 39160 ft | 520 kts | 168° |
| 2026-04-25 14:10 | 41.41758 | 111.62392 | 39160 ft | 520 kts | 168° |
| 2026-04-25 14:11 | 41.34820 | 111.65183 | 39156 ft | 521 kts | 169° |
| 2026-04-25 14:11 | 41.27923 | 111.67952 | 39158 ft | 520 kts | 169° |
| 2026-04-25 14:12 | 41.20998 | 111.70720 | 39160 ft | 522 kts | 169° |
| 2026-04-25 14:12 | 41.14035 | 111.73502 | 39157 ft | 523 kts | 169° |
| 2026-04-25 14:13 | 41.07089 | 111.76272 | 39156 ft | 522 kts | 169° |
| 2026-04-25 14:13 | 41.00129 | 111.79034 | 39152 ft | 523 kts | 169° |
| 2026-04-25 14:14 | 40.93181 | 111.81787 | 39135 ft | 525 kts | 169° |
| 2026-04-25 14:14 | 40.86157 | 111.84576 | 39124 ft | 525 kts | 169° |
| 2026-04-25 14:15 | 40.79203 | 111.87328 | 39108 ft | 525 kts | 169° |
| 2026-04-25 14:15 | 40.72205 | 111.90021 | 39099 ft | 523 kts | 172° |
| 2026-04-25 14:16 | 40.65150 | 111.92120 | 39101 ft | 521 kts | 174° |
| 2026-04-25 14:16 | 40.58053 | 111.93890 | 39110 ft | 517 kts | 177° |
| 2026-04-25 14:17 | 40.50954 | 111.95456 | 39114 ft | 517 kts | 177° |
| 2026-04-25 14:17 | 40.43871 | 111.97024 | 39121 ft | 518 kts | 176° |
| 2026-04-25 14:18 | 40.36809 | 111.98628 | 39119 ft | 518 kts | 175° |
| 2026-04-25 14:18 | 40.29739 | 112.00390 | 39114 ft | 519 kts | 175° |
| 2026-04-25 14:19 | 40.22664 | 112.02155 | 39114 ft | 518 kts | 175° |
| 2026-04-25 14:19 | 40.15547 | 112.03903 | 39127 ft | 518 kts | 175° |
| 2026-04-25 14:20 | 40.08492 | 112.05637 | 39135 ft | 518 kts | 175° |
| 2026-04-25 14:20 | 40.01428 | 112.07375 | 39145 ft | 519 kts | 175° |
| 2026-04-25 14:21 | 39.94322 | 112.09110 | 39145 ft | 518 kts | 175° |
| 2026-04-25 14:21 | 39.87261 | 112.10822 | 39153 ft | 518 kts | 175° |
| 2026-04-25 14:22 | 39.80189 | 112.12544 | 39171 ft | 518 kts | 175° |
| 2026-04-25 14:22 | 39.73080 | 112.14270 | 39176 ft | 518 kts | 175° |
| 2026-04-25 14:23 | 39.66024 | 112.15979 | 39163 ft | 518 kts | 175° |
| 2026-04-25 14:23 | 39.58960 | 112.17693 | 39191 ft | 518 kts | 175° |
| 2026-04-25 14:24 | 39.51891 | 112.19404 | 39166 ft | 518 kts | 175° |
| 2026-04-25 14:24 | 39.44812 | 112.21121 | 39160 ft | 517 kts | 175° |
| 2026-04-25 14:25 | 39.37750 | 112.22848 | 39158 ft | 518 kts | 175° |
| 2026-04-25 14:25 | 39.30708 | 112.24580 | 39150 ft | 517 kts | 174° |
| 2026-04-25 14:26 | 39.23637 | 112.26316 | 39154 ft | 517 kts | 175° |
| 2026-04-25 14:26 | 39.16566 | 112.28046 | 39152 ft | 517 kts | 174° |
| 2026-04-25 14:27 | 39.09512 | 112.29767 | 39154 ft | 516 kts | 175° |
| 2026-04-25 14:27 | 39.02462 | 112.31486 | 39162 ft | 517 kts | 175° |
| 2026-04-25 14:28 | 38.95439 | 112.33195 | 39173 ft | 516 kts | 175° |
| 2026-04-25 14:28 | 38.88362 | 112.34910 | 39180 ft | 516 kts | 175° |
| 2026-04-25 14:29 | 38.81312 | 112.36616 | 39184 ft | 516 kts | 174° |
| 2026-04-25 14:29 | 38.74301 | 112.38313 | 39193 ft | 517 kts | 174° |
| 2026-04-25 14:30 | 38.67260 | 112.40014 | 39182 ft | 516 kts | 174° |
| 2026-04-25 14:30 | 38.56659 | 112.42571 | 39163 ft | 516 kts | 174° |
| 2026-04-25 14:31 | 38.49611 | 112.44265 | 39152 ft | 517 kts | 174° |
| 2026-04-25 14:31 | 38.42553 | 112.45951 | 39144 ft | 516 kts | 175° |
| 2026-04-25 14:32 | 38.35524 | 112.47598 | 39131 ft | 516 kts | 174° |
| 2026-04-25 14:32 | 38.28453 | 112.49265 | 39125 ft | 515 kts | 174° |
| 2026-04-25 14:33 | 38.21421 | 112.50923 | 39124 ft | 516 kts | 174° |
| 2026-04-25 14:33 | 38.14323 | 112.52590 | 39113 ft | 517 kts | 174° |
| 2026-04-25 14:34 | 38.07301 | 112.54241 | 39102 ft | 516 kts | 174° |
| 2026-04-25 14:34 | 38.00233 | 112.55897 | 39088 ft | 516 kts | 174° |
| 2026-04-25 14:35 | 37.93174 | 112.57555 | 39083 ft | 517 kts | 174° |
| 2026-04-25 14:35 | 37.86071 | 112.59215 | 39062 ft | 518 kts | 174° |
| 2026-04-25 14:36 | 37.79023 | 112.60891 | 39052 ft | 517 kts | 173° |
| 2026-04-25 14:36 | 37.72004 | 112.62817 | 39055 ft | 521 kts | 169° |
| 2026-04-25 14:37 | 37.65035 | 112.65164 | 39059 ft | 521 kts | 169° |
| 2026-04-25 14:37 | 37.58047 | 112.67506 | 39066 ft | 521 kts | 169° |
| 2026-04-25 14:38 | 37.51043 | 112.69840 | 39074 ft | 521 kts | 169° |
| 2026-04-25 14:38 | 37.44005 | 112.72185 | 39090 ft | 521 kts | 169° |
| 2026-04-25 14:39 | 37.37032 | 112.74509 | 39103 ft | 521 kts | 169° |
| 2026-04-25 14:39 | 37.30011 | 112.76846 | 39120 ft | 522 kts | 169° |
| 2026-04-25 14:40 | 37.23020 | 112.79166 | 39134 ft | 522 kts | 169° |
| 2026-04-25 14:40 | 37.16008 | 112.81493 | 39137 ft | 521 kts | 169° |
| 2026-04-25 14:41 | 37.08984 | 112.83816 | 39131 ft | 523 kts | 169° |
| 2026-04-25 14:41 | 37.01980 | 112.86128 | 39127 ft | 522 kts | 169° |
| 2026-04-25 14:42 | 36.96127 | 112.88051 | 39118 ft | 522 kts | 169° |
| 2026-04-25 14:42 | 36.87937 | 112.90743 | 39105 ft | 523 kts | 169° |
| 2026-04-25 14:43 | 36.80886 | 112.93063 | 39100 ft | 524 kts | 169° |
| 2026-04-25 14:43 | 36.73865 | 112.95367 | 39100 ft | 524 kts | 168° |
| 2026-04-25 14:44 | 36.66811 | 112.97677 | 39105 ft | 524 kts | 169° |
| 2026-04-25 14:44 | 36.59741 | 112.99996 | 39107 ft | 525 kts | 168° |
| 2026-04-25 14:45 | 36.52708 | 113.02291 | 39108 ft | 526 kts | 168° |
| 2026-04-25 14:45 | 36.45665 | 113.04591 | 39108 ft | 524 kts | 169° |
| 2026-04-25 14:46 | 36.38571 | 113.06902 | 39107 ft | 526 kts | 168° |
| 2026-04-25 14:46 | 36.31535 | 113.09191 | 39100 ft | 526 kts | 168° |
| 2026-04-25 14:47 | 36.25641 | 113.11112 | 39100 ft | 527 kts | 167° |
| 2026-04-25 14:47 | 36.17515 | 113.14490 | 39100 ft | 530 kts | 162° |
| 2026-04-25 14:48 | 36.10598 | 113.17626 | 39102 ft | 530 kts | 162° |
| 2026-04-25 14:48 | 36.03674 | 113.20750 | 39109 ft | 530 kts | 162° |
| 2026-04-25 14:49 | 35.96733 | 113.23863 | 39118 ft | 530 kts | 162° |
| 2026-04-25 14:49 | 35.89815 | 113.26962 | 39125 ft | 531 kts | 162° |
| 2026-04-25 14:50 | 35.82848 | 113.30072 | 39135 ft | 530 kts | 162° |
| 2026-04-25 14:50 | 35.75959 | 113.33146 | 39134 ft | 531 kts | 162° |
| 2026-04-25 14:51 | 35.69019 | 113.36249 | 39143 ft | 531 kts | 162° |
| 2026-04-25 14:51 | 35.62099 | 113.39338 | 39138 ft | 531 kts | 162° |
| 2026-04-25 14:52 | 35.55127 | 113.42434 | 39139 ft | 531 kts | 162° |
| 2026-04-25 14:52 | 35.49349 | 113.44991 | 39135 ft | 531 kts | 162° |
| 2026-04-25 14:53 | 35.41248 | 113.48580 | 39110 ft | 530 kts | 162° |
| 2026-04-25 14:53 | 35.34336 | 113.51649 | 39074 ft | 530 kts | 161° |
| 2026-04-25 14:54 | 35.27390 | 113.54733 | 39046 ft | 530 kts | 161° |
| 2026-04-25 14:54 | 35.20494 | 113.57795 | 39029 ft | 530 kts | 162° |
| 2026-04-25 14:55 | 35.13564 | 113.60865 | 39022 ft | 530 kts | 161° |
| 2026-04-25 14:55 | 35.06629 | 113.63934 | 39022 ft | 530 kts | 162° |
| 2026-04-25 14:56 | 34.99717 | 113.66987 | 39027 ft | 529 kts | 162° |
| 2026-04-25 14:56 | 34.92800 | 113.70040 | 39025 ft | 530 kts | 162° |
| 2026-04-25 14:57 | 34.85837 | 113.73023 | 39025 ft | 528 kts | 165° |
| 2026-04-25 14:57 | 34.78794 | 113.75414 | 39032 ft | 528 kts | 167° |
| 2026-04-25 14:58 | 34.71666 | 113.77752 | 39037 ft | 528 kts | 167° |
| 2026-04-25 14:58 | 34.64611 | 113.80083 | 39037 ft | 529 kts | 167° |
| 2026-04-25 14:59 | 34.57574 | 113.82611 | 39041 ft | 530 kts | 161° |
| 2026-04-25 14:59 | 34.50810 | 113.86240 | 39048 ft | 532 kts | 151° |
| 2026-04-25 15:00 | 34.44595 | 113.91048 | 39050 ft | 532 kts | 142° |
| 2026-04-25 15:00 | 34.38810 | 113.96605 | 39050 ft | 531 kts | 139° |
| 2026-04-25 15:01 | 34.33067 | 114.02177 | 39045 ft | 531 kts | 140° |
| 2026-04-25 15:01 | 34.27278 | 114.07725 | 39059 ft | 529 kts | 140° |
| 2026-04-25 15:02 | 34.21514 | 114.13219 | 39061 ft | 529 kts | 140° |
| 2026-04-25 15:02 | 34.15753 | 114.18698 | 39063 ft | 529 kts | 140° |
| 2026-04-25 15:03 | 34.09945 | 114.24212 | 39061 ft | 530 kts | 140° |
| 2026-04-25 15:03 | 34.04183 | 114.29663 | 39065 ft | 529 kts | 140° |
| 2026-04-25 15:04 | 33.98402 | 114.35135 | 39064 ft | 529 kts | 140° |
| 2026-04-25 15:04 | 33.92608 | 114.40605 | 39067 ft | 528 kts | 140° |
| 2026-04-25 15:05 | 33.86850 | 114.46043 | 39061 ft | 527 kts | 140° |
| 2026-04-25 15:06 | 33.78241 | 114.54187 | 39066 ft | 526 kts | 139° |
| 2026-04-25 15:06 | 33.72520 | 114.59686 | 39064 ft | 525 kts | 139° |
| 2026-04-25 15:07 | 33.66939 | 114.65276 | 39059 ft | 524 kts | 134° |
| 2026-04-25 15:07 | 33.61919 | 114.71516 | 39059 ft | 520 kts | 128° |
| 2026-04-25 15:08 | 33.57180 | 114.78071 | 39060 ft | 520 kts | 127° |
| 2026-04-25 15:08 | 33.52502 | 114.84642 | 39065 ft | 519 kts | 127° |
| 2026-04-25 15:09 | 33.47797 | 114.91227 | 39067 ft | 517 kts | 127° |
| 2026-04-25 15:09 | 33.40786 | 115.00998 | 39064 ft | 517 kts | 126° |
| 2026-04-25 15:10 | 33.36114 | 115.07494 | 39059 ft | 516 kts | 127° |
| 2026-04-25 15:11 | 33.29108 | 115.17213 | 39053 ft | 515 kts | 127° |
| 2026-04-25 15:11 | 33.24445 | 115.23666 | 39066 ft | 514 kts | 127° |
| 2026-04-25 15:12 | 33.17440 | 115.33335 | 39069 ft | 513 kts | 127° |
| 2026-04-25 15:12 | 33.14321 | 115.37634 | 39071 ft | 513 kts | 127° |
| 2026-04-25 15:13 | 33.05775 | 115.49391 | 39068 ft | 512 kts | 128° |
| 2026-04-25 15:14 | 33.01120 | 115.55778 | 39073 ft | 511 kts | 128° |
| 2026-04-25 15:14 | 32.96476 | 115.62139 | 39073 ft | 510 kts | 127° |
| 2026-04-25 15:15 | 32.91826 | 115.68508 | 39081 ft | 511 kts | 128° |
| 2026-04-25 15:15 | 32.87189 | 115.74860 | 39071 ft | 510 kts | 128° |
| 2026-04-25 15:16 | 32.82646 | 115.81287 | 39083 ft | 510 kts | 127° |
| 2026-04-25 15:16 | 32.75835 | 115.90977 | 39084 ft | 510 kts | 127° |
| 2026-04-25 15:17 | 32.69011 | 116.00629 | 39086 ft | 509 kts | 128° |
| 2026-04-25 15:18 | 32.64459 | 116.07053 | 39092 ft | 508 kts | 127° |
| 2026-04-25 15:18 | 32.57646 | 116.16659 | 39098 ft | 508 kts | 127° |
| 2026-04-25 15:19 | 32.53887 | 116.22015 | 39101 ft | 508 kts | 126° |
| 2026-04-25 15:19 | 32.48707 | 116.29557 | 39104 ft | 507 kts | 126° |
| 2026-04-25 15:20 | 32.44264 | 116.36028 | 39101 ft | 508 kts | 127° |
| 2026-04-25 15:20 | 32.39817 | 116.42476 | 39104 ft | 509 kts | 127° |
| 2026-04-25 15:21 | 32.35358 | 116.48932 | 39104 ft | 508 kts | 127° |
| 2026-04-25 15:21 | 32.30881 | 116.55403 | 39104 ft | 507 kts | 127° |
| 2026-04-25 15:22 | 32.26435 | 116.61821 | 39104 ft | 507 kts | 126° |
| 2026-04-25 15:22 | 32.21981 | 116.68246 | 39105 ft | 507 kts | 127° |
| 2026-04-25 15:23 | 32.17479 | 116.74695 | 39107 ft | 508 kts | 128° |
| 2026-04-25 15:23 | 32.12906 | 116.81038 | 39103 ft | 509 kts | 128° |
| 2026-04-25 15:24 | 32.08331 | 116.87372 | 39105 ft | 509 kts | 128° |
| 2026-04-25 15:24 | 32.04505 | 116.92682 | 39109 ft | 508 kts | 128° |
| 2026-04-25 15:25 | 31.99184 | 117.00070 | 39099 ft | 508 kts | 128° |
| 2026-04-25 15:25 | 31.94628 | 117.06377 | 39107 ft | 509 kts | 128° |
| 2026-04-25 15:26 | 31.90062 | 117.12716 | 39080 ft | 509 kts | 128° |
| 2026-04-25 15:26 | 31.85475 | 117.19089 | 39104 ft | 508 kts | 128° |
| 2026-04-25 15:27 | 31.81218 | 117.25621 | 39065 ft | 506 kts | 119° |
| 2026-04-25 15:27 | 31.78202 | 117.32972 | 39103 ft | 500 kts | 105° |
| 2026-04-25 15:28 | 31.77229 | 117.36909 | 39090 ft | 496 kts | 98° |
| 2026-04-25 15:28 | 31.76330 | 117.44869 | 39094 ft | 492 kts | 90° |
| 2026-04-25 15:29 | 31.75839 | 117.52877 | 39083 ft | 491 kts | 89° |
| 2026-04-25 15:29 | 31.75328 | 117.60819 | 39081 ft | 492 kts | 90° |
| 2026-04-25 15:30 | 31.74778 | 117.68832 | 39103 ft | 492 kts | 90° |
| 2026-04-25 15:30 | 31.74209 | 117.76859 | 39102 ft | 493 kts | 91° |
| 2026-04-25 15:31 | 31.73640 | 117.84853 | 39074 ft | 494 kts | 91° |
| 2026-04-25 15:31 | 31.73062 | 117.92895 | 39101 ft | 495 kts | 91° |
| 2026-04-25 15:32 | 31.72478 | 118.00966 | 39091 ft | 502 kts | 91° |
| 2026-04-25 15:32 | 31.72180 | 118.05084 | 38887 ft | 509 kts | 91° |
| 2026-04-25 15:32 | 31.71874 | 118.09226 | 38698 ft | 509 kts | 91° |
| 2026-04-25 15:33 | 31.71278 | 118.17492 | 38275 ft | 509 kts | 90° |
| 2026-04-25 15:33 | 31.70990 | 118.21610 | 38094 ft | 508 kts | 90° |
| 2026-04-25 15:33 | 31.70701 | 118.25756 | 37920 ft | 507 kts | 90° |
| 2026-04-25 15:33 | 31.70416 | 118.29830 | 37733 ft | 507 kts | 90° |
| 2026-04-25 15:34 | 31.70128 | 118.33947 | 37578 ft | 505 kts | 90° |
| 2026-04-25 15:34 | 31.69838 | 118.38017 | 37351 ft | 499 kts | 90° |
| 2026-04-25 15:34 | 31.69547 | 118.42062 | 36891 ft | 496 kts | 90° |
| 2026-04-25 15:34 | 31.69352 | 118.44770 | 36492 ft | 496 kts | 89° |
| 2026-04-25 15:35 | 31.68679 | 118.54127 | 35099 ft | 494 kts | 88° |
| 2026-04-25 15:35 | 31.68394 | 118.58067 | 34568 ft | 492 kts | 88° |
| 2026-04-25 15:35 | 31.68104 | 118.62045 | 34015 ft | 490 kts | 87° |
| 2026-04-25 15:36 | 31.67533 | 118.69991 | 32608 ft | 490 kts | 88° |
| 2026-04-25 15:36 | 31.67249 | 118.73951 | 31886 ft | 490 kts | 89° |
| 2026-04-25 15:36 | 31.66958 | 118.77961 | 31130 ft | 490 kts | 88° |
| 2026-04-25 15:37 | 31.66666 | 118.81892 | 30385 ft | 490 kts | 89° |
| 2026-04-25 15:37 | 31.66371 | 118.85885 | 29660 ft | 488 kts | 89° |
| 2026-04-25 15:37 | 31.66076 | 118.89847 | 29076 ft | 489 kts | 89° |
| 2026-04-25 15:37 | 31.65774 | 118.93825 | 28620 ft | 493 kts | 91° |
| 2026-04-25 15:38 | 31.64957 | 118.97755 | 28168 ft | 508 kts | 108° |
| 2026-04-25 15:38 | 31.63081 | 119.01283 | 27741 ft | 518 kts | 127° |
| 2026-04-25 15:38 | 31.60380 | 119.04064 | 27343 ft | 521 kts | 141° |
| 2026-04-25 15:38 | 31.57343 | 119.06413 | 26993 ft | 519 kts | 144° |
| 2026-04-25 15:39 | 31.54355 | 119.08702 | 26651 ft | 513 kts | 143° |
| 2026-04-25 15:39 | 31.51435 | 119.11089 | 26179 ft | 505 kts | 142° |
| 2026-04-25 15:39 | 31.48643 | 119.13495 | 25791 ft | 498 kts | 141° |
| 2026-04-25 15:39 | 31.45901 | 119.15905 | 25299 ft | 495 kts | 141° |
| 2026-04-25 15:40 | 31.43159 | 119.18310 | 24918 ft | 491 kts | 141° |
| 2026-04-25 15:40 | 31.42252 | 119.19104 | 24749 ft | 491 kts | 141° |
| 2026-04-25 15:40 | 31.37714 | 119.23070 | 23992 ft | 482 kts | 141° |
| 2026-04-25 15:40 | 31.35034 | 119.25407 | 23587 ft | 479 kts | 141° |
| 2026-04-25 15:41 | 31.32392 | 119.27710 | 23218 ft | 475 kts | 142° |
| 2026-04-25 15:41 | 31.29729 | 119.30030 | 22845 ft | 472 kts | 141° |
| 2026-04-25 15:41 | 31.27138 | 119.32288 | 22486 ft | 469 kts | 142° |
| 2026-04-25 15:41 | 31.24498 | 119.34587 | 21982 ft | 466 kts | 142° |
| 2026-04-25 15:42 | 31.21948 | 119.36806 | 21636 ft | 459 kts | 141° |
| 2026-04-25 15:42 | 31.19381 | 119.39036 | 21163 ft | 458 kts | 142° |
| 2026-04-25 15:42 | 31.16848 | 119.41239 | 20710 ft | 453 kts | 142° |
| 2026-04-25 15:42 | 31.14318 | 119.43445 | 20274 ft | 450 kts | 142° |
| 2026-04-25 15:43 | 31.11833 | 119.45615 | 19859 ft | 446 kts | 142° |
| 2026-04-25 15:43 | 31.09327 | 119.47800 | 19429 ft | 444 kts | 141° |
| 2026-04-25 15:43 | 31.06869 | 119.49945 | 19008 ft | 441 kts | 141° |
| 2026-04-25 15:43 | 31.04425 | 119.52077 | 18610 ft | 438 kts | 141° |
| 2026-04-25 15:44 | 31.02004 | 119.54189 | 18212 ft | 433 kts | 141° |
| 2026-04-25 15:44 | 30.99593 | 119.56290 | 17808 ft | 432 kts | 141° |
| 2026-04-25 15:44 | 30.97202 | 119.58375 | 17363 ft | 428 kts | 142° |
| 2026-04-25 15:44 | 30.94837 | 119.60434 | 16925 ft | 426 kts | 142° |
| 2026-04-25 15:45 | 30.92451 | 119.62510 | 16495 ft | 422 kts | 142° |
| 2026-04-25 15:45 | 30.90114 | 119.64542 | 16081 ft | 421 kts | 142° |
| 2026-04-25 15:45 | 30.87768 | 119.66580 | 15651 ft | 418 kts | 143° |
| 2026-04-25 15:45 | 30.86237 | 119.67910 | 15385 ft | 416 kts | 143° |
| 2026-04-25 15:46 | 30.83155 | 119.70585 | 14829 ft | 413 kts | 143° |
| 2026-04-25 15:46 | 30.80836 | 119.72598 | 14398 ft | 411 kts | 143° |
| 2026-04-25 15:46 | 30.78576 | 119.74559 | 14062 ft | 403 kts | 143° |
| 2026-04-25 15:46 | 30.76343 | 119.76495 | 13692 ft | 399 kts | 143° |
| 2026-04-25 15:47 | 30.74122 | 119.78418 | 13218 ft | 397 kts | 143° |
| 2026-04-25 15:47 | 30.71935 | 119.80308 | 12780 ft | 396 kts | 143° |
| 2026-04-25 15:47 | 30.69727 | 119.82271 | 12354 ft | 394 kts | 141° |
| 2026-04-25 15:47 | 30.67607 | 119.84212 | 11940 ft | 391 kts | 141° |
| 2026-04-25 15:48 | 30.65483 | 119.86146 | 11525 ft | 389 kts | 143° |
| 2026-04-25 15:48 | 30.63246 | 119.87914 | 11122 ft | 386 kts | 148° |
| 2026-04-25 15:48 | 30.60940 | 119.89450 | 10720 ft | 382 kts | 151° |
| 2026-04-25 15:48 | 30.58604 | 119.90936 | 10399 ft | 375 kts | 151° |
| 2026-04-25 15:49 | 30.56352 | 119.92358 | 10199 ft | 365 kts | 151° |
| 2026-04-25 15:49 | 30.54144 | 119.93753 | 10104 ft | 353 kts | 151° |
| 2026-04-25 15:49 | 30.52030 | 119.95092 | 10003 ft | 342 kts | 151° |
| 2026-04-25 15:49 | 30.49978 | 119.96393 | 9968 ft | 329 kts | 151° |
| 2026-04-25 15:50 | 30.48005 | 119.97644 | 9906 ft | 319 kts | 151° |
| 2026-04-25 15:50 | 30.46061 | 119.98877 | 9688 ft | 315 kts | 151° |
| 2026-04-25 15:50 | 30.44161 | 120.00080 | 9421 ft | 310 kts | 151° |
| 2026-04-25 15:50 | 30.42435 | 120.01172 | 9120 ft | 304 kts | 151° |
| 2026-04-25 15:51 | 30.41102 | 120.02016 | 8900 ft | 299 kts | 152° |
| 2026-04-25 15:51 | 30.40200 | 120.02586 | 8739 ft | 297 kts | 152° |
| 2026-04-25 15:51 | 30.38583 | 120.03610 | 8399 ft | 294 kts | 152° |
| 2026-04-25 15:51 | 30.37068 | 120.04568 | 8063 ft | 292 kts | 152° |
| 2026-04-25 15:52 | 30.35054 | 120.05843 | 7856 ft | 288 kts | 152° |
| 2026-04-25 15:52 | 30.31952 | 120.07803 | 7820 ft | 290 kts | 152° |
| 2026-04-25 15:52 | 30.30177 | 120.08925 | 7773 ft | 291 kts | 152° |
| 2026-04-25 15:52 | 30.28372 | 120.10066 | 7478 ft | 293 kts | 152° |
| 2026-04-25 15:53 | 30.26588 | 120.11192 | 7172 ft | 293 kts | 152° |
| 2026-04-25 15:53 | 30.24850 | 120.12291 | 6908 ft | 292 kts | 152° |
| 2026-04-25 15:53 | 30.23120 | 120.13381 | 6850 ft | 282 kts | 153° |
| 2026-04-25 15:53 | 30.21350 | 120.14033 | 6836 ft | 268 kts | 182° |
| 2026-04-25 15:54 | 30.19635 | 120.13501 | 6741 ft | 253 kts | 218° |
| 2026-04-25 15:54 | 30.18573 | 120.12035 | 6583 ft | 243 kts | 246° |
| 2026-04-25 15:54 | 30.17935 | 120.10247 | 6427 ft | 239 kts | 250° |
| 2026-04-25 15:54 | 30.17314 | 120.08461 | 6280 ft | 235 kts | 248° |
| 2026-04-25 15:55 | 30.16818 | 120.07353 | 6156 ft | 235 kts | 233° |
| 2026-04-25 15:55 | 30.14946 | 120.06229 | 5866 ft | 237 kts | 180° |
| 2026-04-25 15:55 | 30.13358 | 120.06767 | 5570 ft | 241 kts | 153° |
| 2026-04-25 15:55 | 30.11902 | 120.07743 | 5316 ft | 240 kts | 143° |
| 2026-04-25 15:56 | 30.10869 | 120.09218 | 5099 ft | 238 kts | 111° |
| 2026-04-25 15:56 | 30.10668 | 120.11075 | 4875 ft | 234 kts | 77° |
| 2026-04-25 15:56 | 30.11217 | 120.12820 | 4879 ft | 227 kts | 62° |
| 2026-04-25 15:56 | 30.11985 | 120.14403 | 4883 ft | 229 kts | 58° |
| 2026-04-25 15:57 | 30.12787 | 120.15998 | 4703 ft | 229 kts | 59° |
| 2026-04-25 15:57 | 30.13484 | 120.17446 | 4433 ft | 231 kts | 60° |
| 2026-04-25 15:57 | 30.14282 | 120.19185 | 4088 ft | 232 kts | 62° |
| 2026-04-25 15:57 | 30.15018 | 120.20841 | 3764 ft | 229 kts | 62° |
| 2026-04-25 15:58 | 30.15726 | 120.22459 | 3460 ft | 222 kts | 63° |
| 2026-04-25 15:58 | 30.16409 | 120.24024 | 3183 ft | 214 kts | 63° |
| 2026-04-25 15:58 | 30.17075 | 120.25545 | 2906 ft | 209 kts | 63° |
| 2026-04-25 15:58 | 30.17730 | 120.27038 | 2635 ft | 203 kts | 63° |
| 2026-04-25 15:59 | 30.18353 | 120.28455 | 2347 ft | 195 kts | 63° |
| 2026-04-25 15:59 | 30.18949 | 120.29808 | 2106 ft | 183 kts | 64° |
| 2026-04-25 15:59 | 30.19517 | 120.31097 | 1867 ft | 174 kts | 63° |
| 2026-04-25 15:59 | 30.20040 | 120.32282 | 1647 ft | 165 kts | 64° |
| 2026-04-25 16:00 | 30.20386 | 120.33064 | 1506 ft | 161 kts | 63° |
| 2026-04-25 16:00 | 30.20718 | 120.33818 | 1367 ft | 157 kts | 63° |
| 2026-04-25 16:00 | 30.21477 | 120.35536 | 1051 ft | 147 kts | 63° |
| 2026-04-25 16:00 | 30.21963 | 120.36634 | 846 ft | 140 kts | 63° |
| 2026-04-25 16:01 | 30.22376 | 120.37569 | 669 ft | 138 kts | 63° |
| 2026-04-25 16:01 | 30.22814 | 120.38570 | 497 ft | 138 kts | 63° |
| 2026-04-25 16:01 | 30.23198 | 120.39434 | 332 ft | 138 kts | 63° |
| 2026-04-25 16:01 | 30.23571 | 120.40271 | 179 ft | 137 kts | 62° |
| 2026-04-25 16:02 | 30.24263 | 120.41818 | 37 ft | 95 kts | 64° |
| 2026-04-25 16:02 | 30.24484 | 120.42331 | 37 ft | 43 kts | 63° |
| 2026-04-25 16:02 | 30.24551 | 120.42535 | 37 ft | 31 kts | 79° |
| 2026-04-25 16:03 | 30.24557 | 120.42708 | 37 ft | 25 kts | 91° |
| 2026-04-25 16:03 | 30.24521 | 120.42795 | 37 ft | 8 kts | 182° |
| 2026-04-25 16:03 | 30.24476 | 120.42754 | 37 ft | 8 kts | 218° |
| 2026-04-25 16:03 | 30.24432 | 120.42752 | 37 ft | 6 kts | 150° |
| 2026-04-25 16:04 | 30.24368 | 120.42792 | 37 ft | 9 kts | 152° |
| 2026-04-25 16:04 | 30.24301 | 120.42830 | 37 ft | 10 kts | 154° |
| 2026-04-25 16:04 | 30.24229 | 120.42871 | 37 ft | 12 kts | 152° |
| 2026-04-25 16:04 | 30.24188 | 120.42897 | 37 ft | 3 kts | 145° |
| 2026-04-25 16:05 | 30.24185 | 120.42910 | 37 ft | 2 kts | 75° |
| 2026-04-25 16:05 | 30.24192 | 120.42927 | 37 ft | 3 kts | 63° |
| 2026-04-25 16:05 | 30.24202 | 120.42950 | 37 ft | 0 kts | 63° |